createdAt,value
2022-08-26T00:00:08.731Z,4237
2022-08-26T00:05:21.281Z,4198
2022-08-26T00:10:33.491Z,4235
2022-08-26T00:15:45.803Z,4199
2022-08-26T00:21:00.795Z,4218
2022-08-26T00:26:13.125Z,4233
2022-08-26T00:31:25.384Z,4231
2022-08-26T00:36:40.700Z,4198
2022-08-26T00:41:52.776Z,4199
2022-08-26T00:47:07.850Z,4209
2022-08-26T00:52:20.181Z,4209
2022-08-26T00:57:32.579Z,4198
2022-08-26T01:02:46.737Z,4177
2022-08-26T01:13:09.765Z,4227
2022-08-26T01:18:22.210Z,4198
2022-08-26T01:23:34.620Z,4194
2022-08-26T01:33:59.360Z,4209
2022-08-26T01:39:11.734Z,4199
2022-08-26T01:44:24.008Z,4209
2022-08-26T01:49:36.446Z,4224
2022-08-26T01:54:50.426Z,4201
2022-08-26T02:05:13.609Z,4205
2022-08-26T02:10:25.949Z,4224
2022-08-26T02:15:38.360Z,4222
2022-08-26T02:26:02.885Z,4214
2022-08-26T02:31:15.483Z,4220
2022-08-26T02:41:40.321Z,4220
2022-08-26T02:46:52.664Z,4190
2022-08-26T02:52:04.796Z,4186
2022-08-26T02:57:17.185Z,4188
2022-08-26T03:02:29.699Z,4196
2022-08-26T03:07:42.500Z,4218
2022-08-26T03:12:54.770Z,4158
2022-08-26T03:23:19.467Z,4212
2022-08-26T03:28:31.833Z,4214
2022-08-26T03:33:44.246Z,4198
2022-08-26T03:39:05.213Z,4162
2022-08-26T03:44:17.708Z,4145
2022-08-26T03:49:32.912Z,4160
2022-08-26T03:54:45.090Z,4175
2022-08-26T03:59:57.441Z,4155
2022-08-26T04:05:09.728Z,4164
2022-08-26T04:10:31.307Z,4186
2022-08-26T04:15:43.972Z,4186
2022-08-26T04:20:56.352Z,4201
2022-08-26T04:26:08.487Z,4192
2022-08-26T04:31:20.955Z,4177
2022-08-26T04:36:33.313Z,4166
2022-08-26T04:41:45.467Z,4203
2022-08-26T04:46:57.774Z,4188
2022-08-26T04:52:10.272Z,4199
2022-08-26T04:57:22.495Z,4168
2022-08-26T05:02:34.923Z,4166
2022-08-26T05:07:47.412Z,4183
2022-08-26T05:12:59.890Z,4155
2022-08-26T05:18:12.246Z,4198
2022-08-26T05:23:24.623Z,4171
2022-08-26T05:28:37.057Z,4186
2022-08-26T05:33:49.501Z,4138
2022-08-26T05:39:02.044Z,4147
2022-08-26T05:44:14.531Z,4136
2022-08-26T05:49:26.835Z,4138
2022-08-26T05:54:39.283Z,4151
2022-08-26T05:59:51.705Z,4196
2022-08-26T06:05:03.943Z,4181
2022-08-26T06:10:31.362Z,4127
2022-08-26T06:15:28.892Z,4157
2022-08-26T06:20:41.214Z,4181
2022-08-26T06:25:53.744Z,4157
2022-08-26T06:31:06.320Z,4105
2022-08-26T06:36:18.772Z,4145
2022-08-26T06:41:30.953Z,4118
2022-08-26T06:46:44.253Z,4065
2022-08-26T06:51:55.778Z,4116
2022-08-26T06:57:07.900Z,4151
2022-08-26T07:02:20.717Z,4171
2022-08-26T07:07:32.802Z,4153
2022-08-26T07:12:47.052Z,4170
2022-08-26T07:17:57.806Z,4125
2022-08-26T07:23:11.723Z,4171
2022-08-26T07:28:23.264Z,4118
2022-08-26T07:33:35.685Z,4125
2022-08-26T07:38:48.202Z,4121
2022-08-26T07:44:00.739Z,4162
2022-08-26T07:49:12.915Z,4129
2022-08-26T07:54:26.712Z,4123
2022-08-26T07:59:37.868Z,4084
2022-08-26T08:04:50.521Z,4147
2022-08-26T08:10:05.564Z,4112
2022-08-26T08:15:15.078Z,4110
2022-08-26T08:20:27.458Z,4145
2022-08-26T08:25:39.654Z,4160
2022-08-26T08:30:51.833Z,4131
2022-08-26T08:36:04.220Z,4108
2022-08-26T08:41:16.501Z,4069
2022-08-26T08:46:29.220Z,4105
2022-08-26T08:51:41.668Z,4155
2022-08-26T08:56:54.111Z,4155
2022-08-26T09:02:06.469Z,4183
2022-08-26T09:07:18.839Z,4125
2022-08-26T09:12:31.202Z,4034
2022-08-26T09:17:43.799Z,4179
2022-08-26T09:22:56.117Z,4140
2022-08-26T09:28:08.763Z,4196
2022-08-26T09:33:21.894Z,4142
2022-08-26T09:38:34.678Z,4132
2022-08-26T09:43:46.928Z,4162
2022-08-26T09:48:59.587Z,4171
2022-08-26T09:54:11.906Z,4153
2022-08-26T09:59:24.446Z,4201
2022-08-26T10:04:36.860Z,4177
2022-08-26T10:09:49.284Z,4220
2022-08-26T10:15:01.519Z,4235
2022-08-26T10:20:22.995Z,4207
2022-08-26T10:25:26.251Z,4220
2022-08-26T10:30:38.864Z,4171
2022-08-26T10:35:51.011Z,4179
2022-08-26T10:41:03.275Z,4186
2022-08-26T10:46:15.840Z,4207
2022-08-26T10:51:27.960Z,4255
2022-08-26T10:56:40.382Z,4272
2022-08-26T11:01:52.838Z,4244
2022-08-26T11:07:05.297Z,4251
2022-08-26T11:12:17.607Z,4237
2022-08-26T11:17:29.890Z,4266
2022-08-26T11:22:47.736Z,4261
2022-08-26T11:27:54.554Z,4283
2022-08-26T11:33:06.994Z,4274
2022-08-26T11:38:19.291Z,4270
2022-08-26T11:43:30.564Z,4251
2022-08-26T11:48:42.278Z,4251
2022-08-26T11:53:54.436Z,4248
2022-08-26T11:59:06.532Z,4257
2022-08-26T12:04:19.180Z,4233
2022-08-26T12:09:31.174Z,4173
2022-08-26T12:14:43.302Z,4233
2022-08-26T12:25:07.925Z,4227
2022-08-26T12:30:20.366Z,4257
2022-08-26T12:35:32.809Z,4246
2022-08-26T12:40:45.257Z,4237
2022-08-26T12:45:57.803Z,4237
2022-08-26T12:51:10.197Z,4259
2022-08-26T12:56:22.518Z,4244
2022-08-26T13:01:34.806Z,4255
2022-08-26T13:06:47.006Z,4225
2022-08-26T13:11:59.269Z,4253
2022-08-26T13:17:11.463Z,4244
2022-08-26T13:22:23.818Z,4222
2022-08-26T13:27:36.164Z,4253
2022-08-26T13:32:48.562Z,4231
2022-08-26T13:38:00.837Z,4253
2022-08-26T13:43:13.130Z,4231
2022-08-26T13:48:28.206Z,4224
2022-08-26T13:53:41.583Z,4251
2022-08-26T13:58:52.678Z,4242
2022-08-26T14:04:05.234Z,4233
2022-08-26T14:09:17.505Z,4242
2022-08-26T14:14:29.860Z,4222
2022-08-26T14:19:42.745Z,4229
2022-08-26T14:24:55.144Z,4240
2022-08-26T14:30:07.292Z,4227
2022-08-26T14:35:19.221Z,4220
2022-08-26T14:40:31.402Z,4194
2022-08-26T14:45:43.631Z,4225
2022-08-26T14:50:55.893Z,4225
2022-08-26T14:56:08.205Z,4225
2022-08-26T15:01:20.537Z,4205
2022-08-26T15:06:32.965Z,4218
2022-08-26T15:11:46.437Z,4229
2022-08-26T15:16:57.735Z,4227
2022-08-26T15:22:10.048Z,4218
2022-08-26T15:27:22.358Z,4216
2022-08-26T15:32:34.595Z,4199
2022-08-26T15:37:46.955Z,4224
2022-08-26T15:43:11.568Z,4224
2022-08-26T15:48:11.643Z,4188
2022-08-26T15:53:24.069Z,4185
2022-08-26T15:58:36.333Z,4183
2022-08-26T16:03:48.659Z,4205
2022-08-26T16:09:00.827Z,4216
2022-08-26T16:14:13.171Z,4199
2022-08-26T16:19:25.472Z,4201
2022-08-26T16:24:37.684Z,4205
2022-08-26T16:29:49.893Z,4220
2022-08-26T16:35:02.326Z,4198
2022-08-26T16:40:14.540Z,4194
2022-08-26T16:45:26.675Z,4164
2022-08-26T16:50:39.004Z,4209
2022-08-26T16:55:51.444Z,4179
2022-08-26T17:01:09.633Z,4175
2022-08-26T17:06:21.927Z,4183
2022-08-26T17:11:34.241Z,4166
2022-08-26T17:16:46.556Z,4164
2022-08-26T17:21:58.884Z,4186
2022-08-26T17:27:11.195Z,4203
2022-08-26T17:32:23.434Z,4192
2022-08-26T17:37:35.617Z,4177
2022-08-26T17:42:48.172Z,4140
2022-08-26T17:48:00.490Z,4145
2022-08-26T17:53:18.635Z,4132
2022-08-26T17:58:25.255Z,4157
2022-08-26T18:03:37.463Z,4179
2022-08-26T18:08:49.927Z,4105
2022-08-26T18:14:02.176Z,4196
2022-08-26T18:19:14.537Z,4153
2022-08-26T18:24:26.895Z,4145
2022-08-26T18:29:43.322Z,4170
2022-08-26T18:34:51.859Z,4123
2022-08-26T18:40:04.330Z,4131
2022-08-26T18:45:16.789Z,4129
2022-08-26T18:50:29.103Z,4131
2022-08-26T18:55:41.517Z,4110
2022-08-26T19:00:53.741Z,4170
2022-08-26T19:06:12.145Z,4131
2022-08-26T19:11:31.875Z,4145
2022-08-26T19:16:36.704Z,4093
2022-08-26T19:21:49.094Z,4188
2022-08-26T19:27:01.382Z,4188
2022-08-26T19:32:13.814Z,4142
2022-08-26T19:37:26.114Z,4149
2022-08-26T19:42:38.659Z,4186
2022-08-26T19:47:50.884Z,4136
2022-08-26T19:53:03.258Z,4116
2022-08-26T19:58:16.033Z,4132
2022-08-26T20:03:28.387Z,4108
2022-08-26T20:08:40.691Z,4157
2022-08-26T20:13:53.235Z,4158
2022-08-26T20:19:05.456Z,4157
2022-08-26T20:24:18.014Z,4134
2022-08-26T20:29:30.362Z,4138
2022-08-26T20:34:42.855Z,4177
2022-08-26T20:39:55.254Z,4131
2022-08-26T20:45:07.488Z,4158
2022-08-26T20:50:20.026Z,4153
2022-08-26T20:55:32.247Z,4171
2022-08-26T21:00:44.810Z,4138
2022-08-26T21:05:57.092Z,4138
2022-08-26T21:11:09.528Z,4101
2022-08-26T21:16:21.910Z,4138
2022-08-26T21:21:34.371Z,4095
2022-08-26T21:26:46.770Z,4153
2022-08-26T21:31:58.964Z,4119
2022-08-26T21:37:15.337Z,4132
2022-08-26T21:42:23.648Z,4095
2022-08-26T21:47:35.887Z,4123
2022-08-26T21:52:48.218Z,4118
2022-08-26T21:58:00.626Z,4166
2022-08-26T22:03:12.947Z,4127
2022-08-26T22:08:28.002Z,4101
2022-08-26T22:13:37.692Z,4114
2022-08-26T22:18:50.019Z,4049
2022-08-26T22:24:02.287Z,4110
2022-08-26T22:29:14.716Z,4164
2022-08-26T22:34:27.015Z,4142
2022-08-26T22:39:39.451Z,4142
2022-08-26T22:44:51.980Z,4127
2022-08-26T22:50:04.075Z,4112
2022-08-26T22:55:16.394Z,4134
2022-08-26T23:00:29.003Z,4021
2022-08-26T23:05:41.360Z,4103
2022-08-26T23:10:53.658Z,4132
2022-08-26T23:16:06.057Z,4138
2022-08-26T23:21:18.429Z,4112
2022-08-26T23:26:31.358Z,4086
2022-08-26T23:31:43.859Z,4127
2022-08-26T23:36:56.120Z,4118
2022-08-26T23:42:08.738Z,4149
2022-08-26T23:47:20.969Z,4132
2022-08-26T23:52:33.260Z,4151
2022-08-26T23:57:45.695Z,4136
